sensor_id;sensor_type;location;lat;lon;timestamp;P1;durP1;ratioP1;P2;durP2;ratioP2
76292;SDS011;67256;51.154;4.164;2023-10-13T00:00:46;6.35;;;2.30;;
76292;SDS011;67256;51.154;4.164;2023-10-13T00:03:12;9.65;;;2.35;;
76292;SDS011;67256;51.154;4.164;2023-10-13T00:05:41;5.88;;;2.20;;
76292;SDS011;67256;51.154;4.164;2023-10-13T00:08:08;10.88;;;2.60;;
76292;SDS011;67256;51.154;4.164;2023-10-13T00:10:35;6.90;;;2.63;;
76292;SDS011;67256;51.154;4.164;2023-10-13T00:13:01;6.50;;;2.38;;
76292;SDS011;67256;51.154;4.164;2023-10-13T00:15:43;9.27;;;2.70;;
76292;SDS011;67256;51.154;4.164;2023-10-13T00:18:21;7.65;;;2.63;;
76292;SDS011;67256;51.154;4.164;2023-10-13T00:20:47;8.98;;;2.70;;
76292;SDS011;67256;51.154;4.164;2023-10-13T00:23:15;9.98;;;3.05;;
76292;SDS011;67256;51.154;4.164;2023-10-13T00:25:47;13.02;;;3.35;;
76292;SDS011;67256;51.154;4.164;2023-10-13T00:28:25;8.45;;;2.70;;
76292;SDS011;67256;51.154;4.164;2023-10-13T00:30:52;9.45;;;2.88;;
76292;SDS011;67256;51.154;4.164;2023-10-13T00:33:25;7.45;;;2.63;;
76292;SDS011;67256;51.154;4.164;2023-10-13T00:35:51;9.80;;;2.70;;
76292;SDS011;67256;51.154;4.164;2023-10-13T00:38:23;7.35;;;2.90;;
76292;SDS011;67256;51.154;4.164;2023-10-13T00:40:49;7.20;;;2.90;;
76292;SDS011;67256;51.154;4.164;2023-10-13T00:43:19;9.77;;;4.43;;
76292;SDS011;67256;51.154;4.164;2023-10-13T00:48:45;12.20;;;3.35;;
76292;SDS011;67256;51.154;4.164;2023-10-13T00:51:17;9.13;;;3.28;;
76292;SDS011;67256;51.154;4.164;2023-10-13T00:54:06;8.45;;;3.72;;
76292;SDS011;67256;51.154;4.164;2023-10-13T00:56:41;6.90;;;2.95;;
76292;SDS011;67256;51.154;4.164;2023-10-13T00:59:18;10.55;;;3.38;;
76292;SDS011;67256;51.154;4.164;2023-10-13T01:01:48;9.02;;;4.20;;
76292;SDS011;67256;51.154;4.164;2023-10-13T01:04:19;8.77;;;3.30;;
76292;SDS011;67256;51.154;4.164;2023-10-13T01:06:45;12.60;;;3.78;;
76292;SDS011;67256;51.154;4.164;2023-10-13T01:09:11;11.63;;;3.58;;
76292;SDS011;67256;51.154;4.164;2023-10-13T01:11:47;12.68;;;4.18;;
76292;SDS011;67256;51.154;4.164;2023-10-13T01:14:17;9.73;;;3.63;;
76292;SDS011;67256;51.154;4.164;2023-10-13T01:16:52;12.88;;;3.33;;
76292;SDS011;67256;51.154;4.164;2023-10-13T01:19:18;9.07;;;3.60;;
76292;SDS011;67256;51.154;4.164;2023-10-13T01:21:50;10.25;;;3.78;;
76292;SDS011;67256;51.154;4.164;2023-10-13T01:24:22;12.52;;;4.22;;
76292;SDS011;67256;51.154;4.164;2023-10-13T01:26:49;13.77;;;3.97;;
76292;SDS011;67256;51.154;4.164;2023-10-13T01:29:18;9.30;;;4.03;;
76292;SDS011;67256;51.154;4.164;2023-10-13T01:31:44;10.80;;;3.85;;
76292;SDS011;67256;51.154;4.164;2023-10-13T01:34:14;9.48;;;4.30;;
76292;SDS011;67256;51.154;4.164;2023-10-13T01:36:53;10.48;;;4.25;;
76292;SDS011;67256;51.154;4.164;2023-10-13T01:39:20;8.00;;;4.35;;
76292;SDS011;67256;51.154;4.164;2023-10-13T01:41:51;10.38;;;5.40;;
76292;SDS011;67256;51.154;4.164;2023-10-13T01:44:26;11.00;;;5.40;;
76292;SDS011;67256;51.154;4.164;2023-10-13T01:46:58;12.98;;;5.50;;
76292;SDS011;67256;51.154;4.164;2023-10-13T01:49:31;13.52;;;5.55;;
76292;SDS011;67256;51.154;4.164;2023-10-13T01:52:06;11.57;;;5.63;;
76292;SDS011;67256;51.154;4.164;2023-10-13T01:54:33;14.00;;;5.63;;
76292;SDS011;67256;51.154;4.164;2023-10-13T01:56:59;12.65;;;6.15;;
76292;SDS011;67256;51.154;4.164;2023-10-13T01:59:25;10.90;;;5.90;;
76292;SDS011;67256;51.154;4.164;2023-10-13T02:01:52;13.43;;;7.13;;
76292;SDS011;67256;51.154;4.164;2023-10-13T02:04:22;13.68;;;6.85;;
76292;SDS011;67256;51.154;4.164;2023-10-13T02:06:48;12.02;;;7.15;;
76292;SDS011;67256;51.154;4.164;2023-10-13T02:09:14;17.25;;;7.28;;
76292;SDS011;67256;51.154;4.164;2023-10-13T02:11:54;10.48;;;7.65;;
76292;SDS011;67256;51.154;4.164;2023-10-13T02:14:21;14.68;;;7.72;;
76292;SDS011;67256;51.154;4.164;2023-10-13T02:16:48;15.05;;;8.75;;
76292;SDS011;67256;51.154;4.164;2023-10-13T02:19:22;15.93;;;9.20;;
76292;SDS011;67256;51.154;4.164;2023-10-13T02:21:52;14.18;;;9.38;;
76292;SDS011;67256;51.154;4.164;2023-10-13T02:24:23;16.98;;;10.43;;
76292;SDS011;67256;51.154;4.164;2023-10-13T02:26:56;23.90;;;11.30;;
76292;SDS011;67256;51.154;4.164;2023-10-13T02:29:28;18.08;;;11.73;;
76292;SDS011;67256;51.154;4.164;2023-10-13T02:31:54;16.83;;;11.10;;
76292;SDS011;67256;51.154;4.164;2023-10-13T02:34:21;21.02;;;12.48;;
76292;SDS011;67256;51.154;4.164;2023-10-13T02:36:49;20.73;;;12.18;;
76292;SDS011;67256;51.154;4.164;2023-10-13T02:39:16;18.15;;;12.98;;
76292;SDS011;67256;51.154;4.164;2023-10-13T02:41:43;19.50;;;13.23;;
76292;SDS011;67256;51.154;4.164;2023-10-13T02:44:15;20.23;;;14.05;;
76292;SDS011;67256;51.154;4.164;2023-10-13T02:46:56;28.15;;;16.58;;
76292;SDS011;67256;51.154;4.164;2023-10-13T02:49:24;25.73;;;15.45;;
76292;SDS011;67256;51.154;4.164;2023-10-13T02:51:51;24.70;;;16.50;;
76292;SDS011;67256;51.154;4.164;2023-10-13T02:54:18;29.27;;;18.17;;
76292;SDS011;67256;51.154;4.164;2023-10-13T02:56:44;27.98;;;18.13;;
76292;SDS011;67256;51.154;4.164;2023-10-13T02:59:23;28.10;;;17.52;;
76292;SDS011;67256;51.154;4.164;2023-10-13T03:02:05;25.55;;;19.27;;
76292;SDS011;67256;51.154;4.164;2023-10-13T03:04:53;26.17;;;17.02;;
76292;SDS011;67256;51.154;4.164;2023-10-13T03:07:26;21.95;;;16.65;;
76292;SDS011;67256;51.154;4.164;2023-10-13T03:09:56;25.30;;;17.77;;
76292;SDS011;67256;51.154;4.164;2023-10-13T03:12:25;25.00;;;16.80;;
76292;SDS011;67256;51.154;4.164;2023-10-13T03:14:58;24.63;;;16.60;;
76292;SDS011;67256;51.154;4.164;2023-10-13T03:17:37;22.20;;;15.50;;
76292;SDS011;67256;51.154;4.164;2023-10-13T03:20:09;28.08;;;16.40;;
76292;SDS011;67256;51.154;4.164;2023-10-13T03:22:40;26.35;;;15.82;;
76292;SDS011;67256;51.154;4.164;2023-10-13T03:25:10;21.17;;;14.48;;
76292;SDS011;67256;51.154;4.164;2023-10-13T03:27:55;23.05;;;14.43;;
76292;SDS011;67256;51.154;4.164;2023-10-13T03:30:21;20.92;;;14.52;;
76292;SDS011;67256;51.154;4.164;2023-10-13T03:32:55;23.08;;;14.02;;
76292;SDS011;67256;51.154;4.164;2023-10-13T03:35:21;20.08;;;13.70;;
76292;SDS011;67256;51.154;4.164;2023-10-13T03:37:51;23.05;;;14.13;;
76292;SDS011;67256;51.154;4.164;2023-10-13T03:40:17;22.13;;;13.20;;
76292;SDS011;67256;51.154;4.164;2023-10-13T03:42:49;22.63;;;13.25;;
76292;SDS011;67256;51.154;4.164;2023-10-13T03:48:12;18.75;;;12.95;;
76292;SDS011;67256;51.154;4.164;2023-10-13T03:50:59;20.70;;;12.90;;
76292;SDS011;67256;51.154;4.164;2023-10-13T03:53:38;22.08;;;11.98;;
76292;SDS011;67256;51.154;4.164;2023-10-13T03:56:27;21.52;;;12.32;;
76292;SDS011;67256;51.154;4.164;2023-10-13T03:58:56;15.05;;;10.98;;
76292;SDS011;67256;51.154;4.164;2023-10-13T04:01:24;14.23;;;10.70;;
76292;SDS011;67256;51.154;4.164;2023-10-13T04:03:59;17.70;;;11.43;;
76292;SDS011;67256;51.154;4.164;2023-10-13T04:06:30;16.33;;;10.98;;
76292;SDS011;67256;51.154;4.164;2023-10-13T04:09:17;18.27;;;10.10;;
76292;SDS011;67256;51.154;4.164;2023-10-13T04:11:54;18.05;;;10.27;;
76292;SDS011;67256;51.154;4.164;2023-10-13T04:14:26;15.73;;;10.07;;
76292;SDS011;67256;51.154;4.164;2023-10-13T04:17:13;17.60;;;10.98;;
76292;SDS011;67256;51.154;4.164;2023-10-13T04:19:39;22.00;;;11.60;;
76292;SDS011;67256;51.154;4.164;2023-10-13T04:22:25;17.63;;;9.45;;
76292;SDS011;67256;51.154;4.164;2023-10-13T04:25:17;14.20;;;10.40;;
76292;SDS011;67256;51.154;4.164;2023-10-13T04:28:05;15.18;;;8.90;;
76292;SDS011;67256;51.154;4.164;2023-10-13T04:30:36;17.40;;;9.07;;
76292;SDS011;67256;51.154;4.164;2023-10-13T04:33:17;13.02;;;8.77;;
76292;SDS011;67256;51.154;4.164;2023-10-13T04:36:14;17.13;;;9.13;;
76292;SDS011;67256;51.154;4.164;2023-10-13T04:38:47;11.60;;;7.85;;
76292;SDS011;67256;51.154;4.164;2023-10-13T04:41:30;13.75;;;8.60;;
76292;SDS011;67256;51.154;4.164;2023-10-13T04:44:06;15.25;;;8.95;;
76292;SDS011;67256;51.154;4.164;2023-10-13T04:46:52;17.83;;;7.95;;
76292;SDS011;67256;51.154;4.164;2023-10-13T04:49:25;16.63;;;8.88;;
76292;SDS011;67256;51.154;4.164;2023-10-13T04:52:11;18.50;;;10.23;;
76292;SDS011;67256;51.154;4.164;2023-10-13T04:54:37;19.63;;;9.80;;
76292;SDS011;67256;51.154;4.164;2023-10-13T04:57:14;17.42;;;8.40;;
76292;SDS011;67256;51.154;4.164;2023-10-13T04:59:49;17.58;;;8.85;;
76292;SDS011;67256;51.154;4.164;2023-10-13T05:02:35;16.83;;;8.68;;
76292;SDS011;67256;51.154;4.164;2023-10-13T05:05:08;16.42;;;8.85;;
76292;SDS011;67256;51.154;4.164;2023-10-13T05:07:43;15.18;;;8.25;;
76292;SDS011;67256;51.154;4.164;2023-10-13T05:10:28;13.82;;;8.27;;
76292;SDS011;67256;51.154;4.164;2023-10-13T05:13:13;24.80;;;9.20;;
76292;SDS011;67256;51.154;4.164;2023-10-13T05:15:57;27.13;;;8.98;;
76292;SDS011;67256;51.154;4.164;2023-10-13T05:18:41;17.30;;;8.23;;
76292;SDS011;67256;51.154;4.164;2023-10-13T05:21:26;16.85;;;8.70;;
76292;SDS011;67256;51.154;4.164;2023-10-13T05:24:10;18.10;;;9.10;;
76292;SDS011;67256;51.154;4.164;2023-10-13T05:26:54;26.60;;;8.80;;
76292;SDS011;67256;51.154;4.164;2023-10-13T05:29:39;20.48;;;10.30;;
76292;SDS011;67256;51.154;4.164;2023-10-13T05:32:26;17.63;;;8.50;;
76292;SDS011;67256;51.154;4.164;2023-10-13T05:35:11;18.60;;;8.38;;
76292;SDS011;67256;51.154;4.164;2023-10-13T05:37:56;26.23;;;8.60;;
76292;SDS011;67256;51.154;4.164;2023-10-13T05:41:00;16.90;;;9.25;;
76292;SDS011;67256;51.154;4.164;2023-10-13T05:43:45;18.73;;;8.25;;
76292;SDS011;67256;51.154;4.164;2023-10-13T05:46:29;26.27;;;9.43;;
76292;SDS011;67256;51.154;4.164;2023-10-13T05:49:02;27.65;;;9.75;;
76292;SDS011;67256;51.154;4.164;2023-10-13T05:51:42;23.05;;;8.63;;
76292;SDS011;67256;51.154;4.164;2023-10-13T05:54:32;19.02;;;8.20;;
76292;SDS011;67256;51.154;4.164;2023-10-13T05:57:16;18.35;;;8.23;;
76292;SDS011;67256;51.154;4.164;2023-10-13T06:00:01;21.02;;;8.43;;
76292;SDS011;67256;51.154;4.164;2023-10-13T06:02:46;24.55;;;7.90;;
76292;SDS011;67256;51.154;4.164;2023-10-13T06:05:30;21.95;;;9.35;;
76292;SDS011;67256;51.154;4.164;2023-10-13T06:08:14;23.25;;;8.00;;
76292;SDS011;67256;51.154;4.164;2023-10-13T06:11:02;19.00;;;8.52;;
76292;SDS011;67256;51.154;4.164;2023-10-13T06:13:47;22.33;;;8.90;;
76292;SDS011;67256;51.154;4.164;2023-10-13T06:16:32;23.20;;;8.65;;
76292;SDS011;67256;51.154;4.164;2023-10-13T06:19:16;22.50;;;8.30;;
76292;SDS011;67256;51.154;4.164;2023-10-13T06:22:00;17.67;;;8.48;;
76292;SDS011;67256;51.154;4.164;2023-10-13T06:24:45;27.52;;;7.57;;
76292;SDS011;67256;51.154;4.164;2023-10-13T06:27:29;19.70;;;7.32;;
76292;SDS011;67256;51.154;4.164;2023-10-13T06:30:13;19.45;;;7.78;;
76292;SDS011;67256;51.154;4.164;2023-10-13T06:32:39;21.02;;;7.22;;
76292;SDS011;67256;51.154;4.164;2023-10-13T06:35:05;20.75;;;7.18;;
76292;SDS011;67256;51.154;4.164;2023-10-13T06:37:34;21.58;;;7.13;;
76292;SDS011;67256;51.154;4.164;2023-10-13T06:40:12;16.13;;;7.22;;
76292;SDS011;67256;51.154;4.164;2023-10-13T06:42:49;21.00;;;6.95;;
76292;SDS011;67256;51.154;4.164;2023-10-13T06:45:15;15.82;;;6.18;;
76292;SDS011;67256;51.154;4.164;2023-10-13T06:47:44;18.52;;;6.25;;
76292;SDS011;67256;51.154;4.164;2023-10-13T06:50:10;25.17;;;6.32;;
76292;SDS011;67256;51.154;4.164;2023-10-13T06:52:43;24.88;;;7.20;;
76292;SDS011;67256;51.154;4.164;2023-10-13T06:55:10;20.05;;;7.00;;
76292;SDS011;67256;51.154;4.164;2023-10-13T06:57:43;15.43;;;6.45;;
76292;SDS011;67256;51.154;4.164;2023-10-13T07:00:12;26.60;;;5.78;;
76292;SDS011;67256;51.154;4.164;2023-10-13T07:02:50;15.35;;;5.45;;
76292;SDS011;67256;51.154;4.164;2023-10-13T07:05:17;16.15;;;6.32;;
76292;SDS011;67256;51.154;4.164;2023-10-13T07:07:44;15.70;;;6.50;;
76292;SDS011;67256;51.154;4.164;2023-10-13T07:10:11;18.85;;;6.78;;
76292;SDS011;67256;51.154;4.164;2023-10-13T07:12:38;21.17;;;6.95;;
76292;SDS011;67256;51.154;4.164;2023-10-13T07:15:15;14.90;;;6.60;;
76292;SDS011;67256;51.154;4.164;2023-10-13T07:17:43;20.38;;;6.47;;
76292;SDS011;67256;51.154;4.164;2023-10-13T07:20:10;19.77;;;6.70;;
76292;SDS011;67256;51.154;4.164;2023-10-13T07:22:49;15.85;;;6.40;;
76292;SDS011;67256;51.154;4.164;2023-10-13T07:25:31;18.33;;;7.22;;
76292;SDS011;67256;51.154;4.164;2023-10-13T07:28:04;18.77;;;5.68;;
76292;SDS011;67256;51.154;4.164;2023-10-13T07:30:33;12.98;;;6.43;;
76292;SDS011;67256;51.154;4.164;2023-10-13T07:33:15;18.52;;;6.35;;
76292;SDS011;67256;51.154;4.164;2023-10-13T07:35:45;16.15;;;6.53;;
76292;SDS011;67256;51.154;4.164;2023-10-13T07:38:16;16.58;;;6.15;;
76292;SDS011;67256;51.154;4.164;2023-10-13T07:40:46;21.00;;;5.90;;
76292;SDS011;67256;51.154;4.164;2023-10-13T07:43:18;18.80;;;5.57;;
76292;SDS011;67256;51.154;4.164;2023-10-13T07:45:46;14.30;;;5.65;;
76292;SDS011;67256;51.154;4.164;2023-10-13T07:48:16;14.40;;;6.32;;
76292;SDS011;67256;51.154;4.164;2023-10-13T07:53:26;19.52;;;6.03;;
76292;SDS011;67256;51.154;4.164;2023-10-13T07:55:59;17.95;;;6.10;;
76292;SDS011;67256;51.154;4.164;2023-10-13T07:58:37;21.17;;;8.15;;
76292;SDS011;67256;51.154;4.164;2023-10-13T08:01:18;18.48;;;6.68;;
76292;SDS011;67256;51.154;4.164;2023-10-13T08:03:44;18.55;;;6.38;;
76292;SDS011;67256;51.154;4.164;2023-10-13T08:06:12;22.83;;;6.63;;
76292;SDS011;67256;51.154;4.164;2023-10-13T08:08:39;20.05;;;6.43;;
76292;SDS011;67256;51.154;4.164;2023-10-13T08:16:21;19.13;;;5.72;;
76292;SDS011;67256;51.154;4.164;2023-10-13T08:18:51;21.17;;;6.95;;
76292;SDS011;67256;51.154;4.164;2023-10-13T08:23:51;18.05;;;5.82;;
76292;SDS011;67256;51.154;4.164;2023-10-13T08:26:23;18.33;;;6.65;;
76292;SDS011;67256;51.154;4.164;2023-10-13T08:29:05;21.02;;;6.80;;
76292;SDS011;67256;51.154;4.164;2023-10-13T08:31:49;21.33;;;6.82;;
76292;SDS011;67256;51.154;4.164;2023-10-13T08:34:31;15.00;;;6.80;;
76292;SDS011;67256;51.154;4.164;2023-10-13T08:37:24;21.35;;;6.78;;
76292;SDS011;67256;51.154;4.164;2023-10-13T08:39:54;21.15;;;6.70;;
76292;SDS011;67256;51.154;4.164;2023-10-13T08:45:09;17.02;;;6.53;;
76292;SDS011;67256;51.154;4.164;2023-10-13T08:47:58;19.65;;;6.78;;
76292;SDS011;67256;51.154;4.164;2023-10-13T08:53:19;23.02;;;7.38;;
76292;SDS011;67256;51.154;4.164;2023-10-13T08:56:08;19.98;;;6.15;;
76292;SDS011;67256;51.154;4.164;2023-10-13T08:58:35;17.73;;;5.93;;
76292;SDS011;67256;51.154;4.164;2023-10-13T09:01:27;18.27;;;6.70;;
76292;SDS011;67256;51.154;4.164;2023-10-13T09:04:36;20.45;;;6.40;;
76292;SDS011;67256;51.154;4.164;2023-10-13T09:07:03;16.70;;;7.65;;
76292;SDS011;67256;51.154;4.164;2023-10-13T09:09:51;15.75;;;6.63;;
76292;SDS011;67256;51.154;4.164;2023-10-13T09:12:17;18.08;;;6.63;;
76292;SDS011;67256;51.154;4.164;2023-10-13T09:15:08;24.65;;;6.30;;
76292;SDS011;67256;51.154;4.164;2023-10-13T09:17:43;15.70;;;5.80;;
76292;SDS011;67256;51.154;4.164;2023-10-13T09:20:17;15.00;;;6.65;;
76292;SDS011;67256;51.154;4.164;2023-10-13T09:23:08;21.73;;;6.38;;
76292;SDS011;67256;51.154;4.164;2023-10-13T09:25:49;17.33;;;6.75;;
76292;SDS011;67256;51.154;4.164;2023-10-13T09:28:24;18.58;;;6.13;;
76292;SDS011;67256;51.154;4.164;2023-10-13T09:30:54;19.70;;;6.60;;
76292;SDS011;67256;51.154;4.164;2023-10-13T09:33:25;27.10;;;6.57;;
76292;SDS011;67256;51.154;4.164;2023-10-13T09:36:01;22.98;;;6.93;;
76292;SDS011;67256;51.154;4.164;2023-10-13T09:38:38;21.25;;;6.40;;
76292;SDS011;67256;51.154;4.164;2023-10-13T09:41:07;16.02;;;6.15;;
76292;SDS011;67256;51.154;4.164;2023-10-13T09:43:51;14.82;;;6.07;;
76292;SDS011;67256;51.154;4.164;2023-10-13T09:46:20;14.10;;;5.68;;
76292;SDS011;67256;51.154;4.164;2023-10-13T09:48:49;14.40;;;6.22;;
76292;SDS011;67256;51.154;4.164;2023-10-13T09:51:30;20.17;;;7.88;;
76292;SDS011;67256;51.154;4.164;2023-10-13T09:57:16;26.13;;;6.28;;
76292;SDS011;67256;51.154;4.164;2023-10-13T09:59:50;28.75;;;6.10;;
76292;SDS011;67256;51.154;4.164;2023-10-13T10:02:21;18.55;;;7.45;;
76292;SDS011;67256;51.154;4.164;2023-10-13T10:07:38;15.48;;;5.95;;
76292;SDS011;67256;51.154;4.164;2023-10-13T10:10:09;21.75;;;6.65;;
76292;SDS011;67256;51.154;4.164;2023-10-13T10:18:00;16.48;;;6.13;;
76292;SDS011;67256;51.154;4.164;2023-10-13T10:20:31;13.80;;;5.35;;
76292;SDS011;67256;51.154;4.164;2023-10-13T10:23:09;16.17;;;6.15;;
76292;SDS011;67256;51.154;4.164;2023-10-13T10:25:46;21.73;;;6.35;;
76292;SDS011;67256;51.154;4.164;2023-10-13T10:28:13;22.10;;;6.97;;
76292;SDS011;67256;51.154;4.164;2023-10-13T10:30:42;17.95;;;6.55;;
76292;SDS011;67256;51.154;4.164;2023-10-13T10:33:09;23.77;;;6.43;;
76292;SDS011;67256;51.154;4.164;2023-10-13T10:35:46;18.30;;;6.30;;
76292;SDS011;67256;51.154;4.164;2023-10-13T10:38:23;28.40;;;7.53;;
76292;SDS011;67256;51.154;4.164;2023-10-13T10:48:41;19.58;;;6.25;;
76292;SDS011;67256;51.154;4.164;2023-10-13T10:51:10;16.90;;;6.22;;
76292;SDS011;67256;51.154;4.164;2023-10-13T10:53:43;24.70;;;6.53;;
76292;SDS011;67256;51.154;4.164;2023-10-13T10:56:12;18.88;;;6.70;;
76292;SDS011;67256;51.154;4.164;2023-10-13T10:58:46;19.35;;;7.13;;
76292;SDS011;67256;51.154;4.164;2023-10-13T11:01:20;17.70;;;6.38;;
76292;SDS011;67256;51.154;4.164;2023-10-13T11:03:56;16.10;;;6.45;;
76292;SDS011;67256;51.154;4.164;2023-10-13T11:06:26;23.17;;;7.57;;
76292;SDS011;67256;51.154;4.164;2023-10-13T11:09:02;27.20;;;7.53;;
76292;SDS011;67256;51.154;4.164;2023-10-13T11:11:29;16.40;;;7.03;;
76292;SDS011;67256;51.154;4.164;2023-10-13T11:14:00;15.43;;;7.43;;
76292;SDS011;67256;51.154;4.164;2023-10-13T11:16:47;21.77;;;7.70;;
76292;SDS011;67256;51.154;4.164;2023-10-13T11:19:18;23.15;;;6.78;;
76292;SDS011;67256;51.154;4.164;2023-10-13T11:22:09;20.48;;;6.65;;
76292;SDS011;67256;51.154;4.164;2023-10-13T11:24:39;19.80;;;7.05;;
76292;SDS011;67256;51.154;4.164;2023-10-13T11:27:15;19.85;;;7.00;;
76292;SDS011;67256;51.154;4.164;2023-10-13T11:30:07;21.25;;;7.78;;
76292;SDS011;67256;51.154;4.164;2023-10-13T11:32:39;13.40;;;6.40;;
76292;SDS011;67256;51.154;4.164;2023-10-13T11:35:07;26.60;;;6.68;;
76292;SDS011;67256;51.154;4.164;2023-10-13T11:37:46;21.95;;;7.00;;
76292;SDS011;67256;51.154;4.164;2023-10-13T11:40:38;22.98;;;7.07;;
76292;SDS011;67256;51.154;4.164;2023-10-13T11:43:22;16.52;;;6.25;;
76292;SDS011;67256;51.154;4.164;2023-10-13T11:45:49;22.38;;;6.25;;
76292;SDS011;67256;51.154;4.164;2023-10-13T11:48:38;22.05;;;6.75;;
76292;SDS011;67256;51.154;4.164;2023-10-13T11:51:06;17.42;;;6.45;;
76292;SDS011;67256;51.154;4.164;2023-10-13T11:53:45;26.90;;;7.30;;
76292;SDS011;67256;51.154;4.164;2023-10-13T11:56:17;30.30;;;9.90;;
76292;SDS011;67256;51.154;4.164;2023-10-13T11:58:46;18.30;;;5.88;;
76292;SDS011;67256;51.154;4.164;2023-10-13T12:01:13;16.25;;;5.90;;
76292;SDS011;67256;51.154;4.164;2023-10-13T12:03:43;18.80;;;6.30;;
76292;SDS011;67256;51.154;4.164;2023-10-13T12:06:29;16.10;;;6.43;;
76292;SDS011;67256;51.154;4.164;2023-10-13T12:11:47;21.83;;;6.53;;
76292;SDS011;67256;51.154;4.164;2023-10-13T12:14:19;29.15;;;6.40;;
76292;SDS011;67256;51.154;4.164;2023-10-13T12:16:47;14.90;;;6.00;;
76292;SDS011;67256;51.154;4.164;2023-10-13T12:19:21;16.60;;;6.88;;
76292;SDS011;67256;51.154;4.164;2023-10-13T12:21:51;11.88;;;5.53;;
76292;SDS011;67256;51.154;4.164;2023-10-13T12:24:21;20.10;;;5.80;;
76292;SDS011;67256;51.154;4.164;2023-10-13T12:27:08;15.98;;;5.82;;
76292;SDS011;67256;51.154;4.164;2023-10-13T12:29:48;16.40;;;6.18;;
76292;SDS011;67256;51.154;4.164;2023-10-13T12:32:17;23.15;;;6.68;;
76292;SDS011;67256;51.154;4.164;2023-10-13T12:34:48;20.52;;;6.15;;
76292;SDS011;67256;51.154;4.164;2023-10-13T12:37:30;20.48;;;6.57;;
76292;SDS011;67256;51.154;4.164;2023-10-13T12:42:55;12.73;;;5.40;;
76292;SDS011;67256;51.154;4.164;2023-10-13T12:45:43;20.35;;;6.03;;
76292;SDS011;67256;51.154;4.164;2023-10-13T12:48:29;16.00;;;6.18;;
76292;SDS011;67256;51.154;4.164;2023-10-13T12:51:16;19.02;;;6.13;;
76292;SDS011;67256;51.154;4.164;2023-10-13T12:53:54;20.00;;;5.25;;
76292;SDS011;67256;51.154;4.164;2023-10-13T12:56:29;16.83;;;5.95;;
76292;SDS011;67256;51.154;4.164;2023-10-13T12:58:55;12.95;;;5.40;;
76292;SDS011;67256;51.154;4.164;2023-10-13T13:01:22;20.05;;;5.22;;
76292;SDS011;67256;51.154;4.164;2023-10-13T13:03:50;11.32;;;5.80;;
76292;SDS011;67256;51.154;4.164;2023-10-13T13:06:22;18.77;;;5.72;;
76292;SDS011;67256;51.154;4.164;2023-10-13T13:08:54;17.55;;;6.15;;
76292;SDS011;67256;51.154;4.164;2023-10-13T13:11:21;21.92;;;5.78;;
76292;SDS011;67256;51.154;4.164;2023-10-13T13:13:47;18.40;;;6.15;;
76292;SDS011;67256;51.154;4.164;2023-10-13T13:16:14;15.65;;;6.00;;
76292;SDS011;67256;51.154;4.164;2023-10-13T13:18:44;15.13;;;5.72;;
76292;SDS011;67256;51.154;4.164;2023-10-13T13:21:11;16.30;;;6.50;;
76292;SDS011;67256;51.154;4.164;2023-10-13T13:23:48;10.68;;;5.25;;
76292;SDS011;67256;51.154;4.164;2023-10-13T13:26:14;20.52;;;5.65;;
76292;SDS011;67256;51.154;4.164;2023-10-13T13:28:47;22.23;;;6.03;;
76292;SDS011;67256;51.154;4.164;2023-10-13T13:31:17;17.70;;;5.97;;
76292;SDS011;67256;51.154;4.164;2023-10-13T13:33:43;16.13;;;6.05;;
76292;SDS011;67256;51.154;4.164;2023-10-13T13:36:09;14.35;;;6.55;;
76292;SDS011;67256;51.154;4.164;2023-10-13T13:38:41;15.60;;;6.10;;
76292;SDS011;67256;51.154;4.164;2023-10-13T13:41:14;17.45;;;5.45;;
76292;SDS011;67256;51.154;4.164;2023-10-13T13:43:48;15.75;;;5.03;;
76292;SDS011;67256;51.154;4.164;2023-10-13T13:46:17;15.07;;;6.38;;
76292;SDS011;67256;51.154;4.164;2023-10-13T13:48:50;15.93;;;6.13;;
76292;SDS011;67256;51.154;4.164;2023-10-13T13:51:32;17.25;;;5.50;;
76292;SDS011;67256;51.154;4.164;2023-10-13T13:53:59;17.25;;;5.47;;
76292;SDS011;67256;51.154;4.164;2023-10-13T13:56:25;16.30;;;5.18;;
76292;SDS011;67256;51.154;4.164;2023-10-13T13:58:53;16.10;;;5.78;;
76292;SDS011;67256;51.154;4.164;2023-10-13T14:01:24;22.80;;;5.53;;
76292;SDS011;67256;51.154;4.164;2023-10-13T14:03:54;20.13;;;5.60;;
76292;SDS011;67256;51.154;4.164;2023-10-13T14:06:27;14.70;;;5.38;;
76292;SDS011;67256;51.154;4.164;2023-10-13T14:08:54;12.52;;;6.03;;
76292;SDS011;67256;51.154;4.164;2023-10-13T14:11:59;19.23;;;6.20;;
76292;SDS011;67256;51.154;4.164;2023-10-13T14:14:43;23.60;;;5.53;;
76292;SDS011;67256;51.154;4.164;2023-10-13T14:17:16;14.75;;;5.50;;
76292;SDS011;67256;51.154;4.164;2023-10-13T14:19:41;12.05;;;5.32;;
76292;SDS011;67256;51.154;4.164;2023-10-13T14:22:09;12.85;;;4.85;;
76292;SDS011;67256;51.154;4.164;2023-10-13T14:24:37;13.55;;;6.28;;
76292;SDS011;67256;51.154;4.164;2023-10-13T14:27:09;13.75;;;5.65;;
76292;SDS011;67256;51.154;4.164;2023-10-13T14:29:42;17.50;;;6.68;;
76292;SDS011;67256;51.154;4.164;2023-10-13T14:32:09;13.75;;;5.75;;
76292;SDS011;67256;51.154;4.164;2023-10-13T14:34:40;13.57;;;5.63;;
76292;SDS011;67256;51.154;4.164;2023-10-13T14:37:07;16.25;;;6.03;;
76292;SDS011;67256;51.154;4.164;2023-10-13T14:39:34;16.77;;;5.78;;
76292;SDS011;67256;51.154;4.164;2023-10-13T14:42:02;15.45;;;6.18;;
76292;SDS011;67256;51.154;4.164;2023-10-13T14:44:31;15.73;;;5.28;;
76292;SDS011;67256;51.154;4.164;2023-10-13T14:46:57;15.82;;;5.80;;
76292;SDS011;67256;51.154;4.164;2023-10-13T14:49:23;16.25;;;5.65;;
76292;SDS011;67256;51.154;4.164;2023-10-13T14:51:49;17.08;;;6.25;;
76292;SDS011;67256;51.154;4.164;2023-10-13T14:54:15;17.92;;;5.68;;
76292;SDS011;67256;51.154;4.164;2023-10-13T14:56:41;13.82;;;5.65;;
76292;SDS011;67256;51.154;4.164;2023-10-13T14:59:07;12.70;;;6.65;;
76292;SDS011;67256;51.154;4.164;2023-10-13T15:01:41;18.02;;;6.70;;
76292;SDS011;67256;51.154;4.164;2023-10-13T15:04:08;11.77;;;5.30;;
76292;SDS011;67256;51.154;4.164;2023-10-13T15:06:33;15.48;;;6.53;;
76292;SDS011;67256;51.154;4.164;2023-10-13T15:09:00;17.20;;;5.32;;
76292;SDS011;67256;51.154;4.164;2023-10-13T15:11:26;19.20;;;5.72;;
76292;SDS011;67256;51.154;4.164;2023-10-13T15:14:01;21.90;;;6.13;;
76292;SDS011;67256;51.154;4.164;2023-10-13T15:16:33;17.92;;;5.97;;
76292;SDS011;67256;51.154;4.164;2023-10-13T15:18:59;17.92;;;5.72;;
76292;SDS011;67256;51.154;4.164;2023-10-13T15:21:26;20.25;;;5.97;;
76292;SDS011;67256;51.154;4.164;2023-10-13T15:24:05;18.38;;;5.43;;
76292;SDS011;67256;51.154;4.164;2023-10-13T15:26:41;22.33;;;5.40;;
76292;SDS011;67256;51.154;4.164;2023-10-13T15:29:16;20.17;;;5.45;;
76292;SDS011;67256;51.154;4.164;2023-10-13T15:31:45;19.08;;;5.63;;
76292;SDS011;67256;51.154;4.164;2023-10-13T15:34:23;17.52;;;6.85;;
76292;SDS011;67256;51.154;4.164;2023-10-13T15:36:51;13.63;;;5.22;;
76292;SDS011;67256;51.154;4.164;2023-10-13T15:39:17;11.25;;;5.80;;
76292;SDS011;67256;51.154;4.164;2023-10-13T15:41:48;16.65;;;5.60;;
76292;SDS011;67256;51.154;4.164;2023-10-13T15:44:19;17.83;;;6.50;;
76292;SDS011;67256;51.154;4.164;2023-10-13T15:46:47;20.15;;;5.93;;
76292;SDS011;67256;51.154;4.164;2023-10-13T15:49:15;13.02;;;6.43;;
76292;SDS011;67256;51.154;4.164;2023-10-13T15:51:41;15.77;;;5.95;;
76292;SDS011;67256;51.154;4.164;2023-10-13T15:54:07;15.20;;;6.28;;
76292;SDS011;67256;51.154;4.164;2023-10-13T15:56:45;16.50;;;5.57;;
76292;SDS011;67256;51.154;4.164;2023-10-13T15:59:14;20.70;;;6.20;;